Time;durP1;ratioP1;P1;durP2;ratioP2;P2;SDS_P1;SDS_P2;PMS_P1;PMS_P2;Temp;Humidity;BMP_temperature;BMP_pressure;BME280_temperature;BME280_humidity;BME280_pressure;Samples;Min_cycle;Max_cycle;Signal;HPM_P1;HPM_P2
2021/01/18 00:00:47;;;;;;;44.37;14.43;;;5.90;84.60;;;;;;5010473;28;20385;-73
2021/01/18 00:03:13;;;;;;;36.50;14.97;;;5.90;84.80;;;;;;5010790;28;20758;-74
2021/01/18 00:05:38;;;;;;;34.10;15.70;;;5.80;85.30;;;;;;5008069;28;20807;-73
2021/01/18 00:08:04;;;;;;;39.70;15.73;;;5.80;84.70;;;;;;5010736;28;20384;-74
2021/01/18 00:10:30;;;;;;;32.78;15.43;;;5.80;86.20;;;;;;5010448;28;20389;-74
2021/01/18 00:12:55;;;;;;;36.13;14.93;;;5.80;85.50;;;;;;5008845;28;20960;-72
2021/01/18 00:15:24;;;;;;;35.85;16.58;;;5.80;85.20;;;;;;4995428;28;20396;-71
2021/01/18 00:17:50;;;;;;;37.72;15.38;;;5.80;85.50;;;;;;5010373;28;20402;-72
2021/01/18 00:20:17;;;;;;;41.55;15.82;;;5.80;85.50;;;;;;5002134;28;20783;-73
2021/01/18 00:22:44;;;;;;;36.27;14.60;;;5.80;86.00;;;;;;5014317;28;20620;-73
2021/01/18 00:25:14;;;;;;;36.70;15.70;;;5.80;85.90;;;;;;5014382;28;20539;-71
2021/01/18 00:27:40;;;;;;;36.67;15.93;;;5.70;85.50;;;;;;5014344;28;20384;-71
2021/01/18 00:30:14;;;;;;;34.78;16.30;;;5.60;86.80;;;;;;5014072;28;20392;-72
2021/01/18 00:32:40;;;;;;;49.00;16.10;;;5.60;87.00;;;;;;5014144;28;20384;-74
2021/01/18 00:35:08;;;;;;;40.90;15.98;;;5.40;88.30;;;;;;5010143;28;20439;-73
2021/01/18 00:37:41;;;;;;;50.35;15.68;;;5.40;88.90;;;;;;5014367;28;20730;-72
2021/01/18 00:40:09;;;;;;;37.05;15.90;;;5.40;90.10;;;;;;5013968;28;20392;-73
2021/01/18 00:42:34;;;;;;;44.22;15.75;;;5.40;90.40;;;;;;5013989;28;20408;-73
2021/01/18 00:45:00;;;;;;;42.88;15.90;;;5.40;89.80;;;;;;5014242;28;20859;-72
2021/01/18 00:47:25;;;;;;;38.57;15.23;;;5.30;89.40;;;;;;5013447;28;20521;-72
2021/01/18 00:49:51;;;;;;;38.37;14.10;;;5.30;89.40;;;;;;5013028;28;20818;-71
2021/01/18 00:52:16;;;;;;;35.50;14.20;;;5.30;89.20;;;;;;5014091;28;20474;-71
2021/01/18 00:54:42;;;;;;;35.30;13.23;;;5.20;89.70;;;;;;5013812;28;20794;-72
2021/01/18 00:57:08;;;;;;;28.73;13.00;;;5.30;90.30;;;;;;5013249;28;20424;-72
2021/01/18 00:59:33;;;;;;;34.30;12.67;;;5.30;90.00;;;;;;5013381;28;20846;-75
2021/01/18 01:01:59;;;;;;;29.30;12.00;;;5.30;89.30;;;;;;5012951;28;20404;-72
2021/01/18 01:04:24;;;;;;;28.35;11.85;;;5.30;89.00;;;;;;5013682;28;20746;-71
2021/01/18 01:06:50;;;;;;;27.77;11.70;;;5.30;88.50;;;;;;5013557;28;20416;-74
2021/01/18 01:09:15;;;;;;;30.13;12.13;;;5.40;88.20;;;;;;5013384;28;20893;-72
2021/01/18 01:11:45;;;;;;;31.60;11.18;;;5.40;88.70;;;;;;5012715;28;20997;-72
2021/01/18 01:14:11;;;;;;;29.25;10.90;;;5.40;88.00;;;;;;5013451;28;20392;-73
2021/01/18 01:16:36;;;;;;;30.43;11.70;;;5.40;87.70;;;;;;5011679;28;20413;-73
2021/01/18 01:19:02;;;;;;;32.63;11.45;;;5.40;87.90;;;;;;4999268;28;20394;-74
2021/01/18 01:21:28;;;;;;;34.85;12.38;;;5.40;88.40;;;;;;4993611;28;20444;-73
2021/01/18 01:23:53;;;;;;;27.63;11.33;;;5.40;88.40;;;;;;4993615;28;20386;-73
2021/01/18 01:26:19;;;;;;;31.40;11.20;;;5.50;87.40;;;;;;4999104;28;20401;-72
2021/01/18 01:28:45;;;;;;;34.20;11.00;;;5.50;86.50;;;;;;5012594;28;20903;-73
2021/01/18 01:31:11;;;;;;;28.83;11.73;;;5.60;85.30;;;;;;5003278;28;20863;-73
2021/01/18 01:33:36;;;;;;;30.92;11.40;;;5.60;85.00;;;;;;4993919;28;20465;-72
2021/01/18 01:36:03;;;;;;;27.40;10.95;;;5.60;84.20;;;;;;4993864;28;20398;-72
2021/01/18 01:38:29;;;;;;;31.75;10.90;;;5.60;83.70;;;;;;4993514;28;20469;-73
2021/01/18 01:40:54;;;;;;;29.37;10.27;;;5.60;83.10;;;;;;4993633;28;20529;-73
2021/01/18 01:43:20;;;;;;;31.53;10.57;;;5.60;82.10;;;;;;5008352;28;20397;-73
2021/01/18 01:45:45;;;;;;;27.73;10.43;;;5.70;81.50;;;;;;5013298;28;20408;-74
2021/01/18 01:48:11;;;;;;;25.60;10.40;;;5.70;80.50;;;;;;5013254;28;20714;-74
2021/01/18 01:50:38;;;;;;;24.63;9.10;;;5.70;80.60;;;;;;5012168;28;20504;-72
2021/01/18 01:53:20;;;;;;;23.05;9.80;;;5.70;80.30;;;;;;5013420;28;20385;-72
2021/01/18 01:55:46;;;;;;;15.48;8.63;;;5.70;79.30;;;;;;5012471;28;20965;-73
2021/01/18 01:58:13;;;;;;;21.98;9.30;;;5.70;79.40;;;;;;5013337;28;20448;-71
2021/01/18 02:00:40;;;;;;;23.98;9.48;;;5.60;80.20;;;;;;5012795;28;20412;-71
2021/01/18 02:03:16;;;;;;;27.67;9.50;;;5.50;81.30;;;;;;5013208;28;20843;-72
2021/01/18 02:05:43;;;;;;;26.83;10.13;;;5.60;80.40;;;;;;5012624;28;20401;-74
2021/01/18 02:08:09;;;;;;;18.40;9.30;;;5.70;79.30;;;;;;5011793;28;20743;-74
2021/01/18 02:10:36;;;;;;;26.35;10.80;;;5.70;77.50;;;;;;5012200;28;20393;-73
2021/01/18 02:13:20;;;;;;;30.77;11.70;;;5.70;78.20;;;;;;5010828;28;20900;-74
2021/01/18 02:16:28;;;;;;;34.30;11.40;;;5.70;78.20;;;;;;5012014;28;20472;-75
2021/01/18 02:19:19;;;;;;;36.45;12.63;;;5.60;78.90;;;;;;4969501;28;20435;-73
2021/01/18 02:22:21;;;;;;;31.40;12.88;;;5.60;79.30;;;;;;4970868;28;20747;-74
2021/01/18 02:25:06;;;;;;;37.30;13.75;;;5.60;79.70;;;;;;4989827;28;20796;-73
2021/01/18 02:28:10;;;;;;;30.37;14.37;;;5.50;80.20;;;;;;4998565;28;20408;-76
2021/01/18 02:31:19;;;;;;;33.65;14.75;;;5.50;80.20;;;;;;5009037;28;20951;-73
2021/01/18 02:34:28;;;;;;;31.45;14.48;;;5.60;80.00;;;;;;4992289;28;20397;-72
2021/01/18 02:37:01;;;;;;;33.97;15.18;;;5.50;80.80;;;;;;4991294;28;20414;-72
2021/01/18 02:39:53;;;;;;;38.30;16.40;;;5.50;80.70;;;;;;4991590;28;20864;-72
2021/01/18 02:42:26;;;;;;;32.60;16.90;;;5.50;80.90;;;;;;5002802;28;20570;-72
2021/01/18 02:44:57;;;;;;;35.72;17.50;;;5.50;79.90;;;;;;4992046;28;20397;-72
2021/01/18 02:47:25;;;;;;;40.20;18.00;;;5.50;79.80;;;;;;4992124;28;20473;-73
2021/01/18 02:49:52;;;;;;;39.42;17.90;;;5.50;79.60;;;;;;4997978;28;20436;-73
2021/01/18 02:52:18;;;;;;;47.75;18.20;;;5.60;79.70;;;;;;5011734;28;20385;-74
2021/01/18 02:54:43;;;;;;;43.10;18.27;;;5.50;79.10;;;;;;5011128;28;20388;-73
2021/01/18 02:57:14;;;;;;;34.22;17.02;;;5.60;79.40;;;;;;5011397;28;20818;-72
2021/01/18 02:59:42;;;;;;;32.10;18.23;;;5.40;80.10;;;;;;5011467;28;20750;-73
2021/01/18 03:02:34;;;;;;;35.65;17.08;;;5.50;81.20;;;;;;5011727;28;20401;-73
2021/01/18 03:05:15;;;;;;;36.35;17.70;;;5.50;80.80;;;;;;4987770;28;20420;-73
2021/01/18 03:08:01;;;;;;;32.80;16.10;;;5.50;79.30;;;;;;5011050;28;20401;-73
2021/01/18 03:10:39;;;;;;;32.15;16.50;;;5.60;77.50;;;;;;5010559;28;20402;-73
2021/01/18 03:13:06;;;;;;;31.23;16.98;;;5.60;76.60;;;;;;5011356;28;20396;-72
2021/01/18 03:15:42;;;;;;;39.00;16.50;;;5.60;76.30;;;;;;5011215;28;20400;-73
2021/01/18 03:18:12;;;;;;;31.65;16.67;;;5.70;75.40;;;;;;5011111;28;20766;-73
2021/01/18 03:20:37;;;;;;;38.30;17.00;;;5.70;74.70;;;;;;4994447;28;20799;-72
2021/01/18 03:23:07;;;;;;;36.25;16.50;;;5.70;74.90;;;;;;4994535;28;20388;-72
2021/01/18 03:25:56;;;;;;;30.33;16.65;;;5.70;74.30;;;;;;4991558;28;20427;-72
2021/01/18 03:28:24;;;;;;;32.78;16.00;;;5.60;75.70;;;;;;4991447;28;20570;-72
2021/01/18 03:30:50;;;;;;;35.95;17.52;;;5.70;74.40;;;;;;4991753;28;20398;-72
2021/01/18 03:33:17;;;;;;;28.42;16.83;;;5.60;74.70;;;;;;5010145;28;20924;-72
2021/01/18 03:35:43;;;;;;;40.78;17.30;;;5.60;75.60;;;;;;5010571;28;20432;-72
2021/01/18 03:38:09;;;;;;;32.07;16.13;;;5.60;76.10;;;;;;5010729;28;20451;-71
2021/01/18 03:40:35;;;;;;;34.83;17.40;;;5.60;75.80;;;;;;5010562;28;20796;-71
2021/01/18 03:43:06;;;;;;;35.13;16.83;;;5.50;76.00;;;;;;5010199;28;20426;-71
2021/01/18 03:45:34;;;;;;;31.90;15.52;;;5.60;75.50;;;;;;5010553;28;20427;-71
2021/01/18 03:48:00;;;;;;;32.60;15.85;;;5.60;75.10;;;;;;5008585;28;20400;-72
2021/01/18 03:50:25;;;;;;;35.60;14.55;;;5.60;73.50;;;;;;5009657;28;20913;-72
2021/01/18 03:52:52;;;;;;;31.70;16.05;;;5.60;74.30;;;;;;4997271;28;20402;-73
2021/01/18 03:55:19;;;;;;;37.80;15.73;;;5.50;74.50;;;;;;5005025;28;20516;-72
2021/01/18 03:57:46;;;;;;;30.05;15.40;;;5.50;75.20;;;;;;5006685;28;20840;-73
2021/01/18 04:00:12;;;;;;;25.40;14.35;;;5.40;76.80;;;;;;4997896;28;20491;-72
2021/01/18 04:02:39;;;;;;;27.27;14.98;;;5.40;77.20;;;;;;5009403;28;20389;-71
2021/01/18 04:05:05;;;;;;;32.33;15.15;;;5.40;76.10;;;;;;5010785;28;20407;-73
2021/01/18 04:07:31;;;;;;;25.98;13.77;;;5.40;76.00;;;;;;5010880;28;20448;-72
2021/01/18 04:09:56;;;;;;;24.27;14.30;;;5.50;75.30;;;;;;5010711;28;20397;-73
2021/01/18 04:12:22;;;;;;;31.23;14.23;;;5.50;74.00;;;;;;5009710;28;20754;-72
2021/01/18 04:14:49;;;;;;;31.20;14.07;;;5.60;73.90;;;;;;5010521;28;20397;-73
2021/01/18 04:17:16;;;;;;;26.30;13.27;;;5.60;73.10;;;;;;5011206;28;20404;-72
2021/01/18 04:19:41;;;;;;;29.48;14.30;;;5.60;72.50;;;;;;4991401;28;20482;-71
2021/01/18 04:22:07;;;;;;;32.42;15.07;;;5.60;73.50;;;;;;5002965;28;20804;-73
2021/01/18 04:24:36;;;;;;;32.50;15.10;;;5.50;74.60;;;;;;5009091;28;20423;-73
2021/01/18 04:27:03;;;;;;;36.08;15.55;;;5.50;74.90;;;;;;5010378;28;20393;-72
2021/01/18 04:29:29;;;;;;;26.13;13.50;;;5.60;74.80;;;;;;5009438;28;20914;-72
2021/01/18 04:31:54;;;;;;;28.95;14.40;;;5.50;74.30;;;;;;5010394;28;20388;-72
2021/01/18 04:34:20;;;;;;;31.30;14.57;;;5.60;74.00;;;;;;4997703;28;20565;-71
2021/01/18 04:36:46;;;;;;;31.97;14.77;;;5.50;75.10;;;;;;4990911;28;20414;-72
2021/01/18 04:39:12;;;;;;;34.70;15.37;;;5.50;75.50;;;;;;4990547;28;20393;-72
2021/01/18 04:41:42;;;;;;;26.83;14.60;;;5.40;76.20;;;;;;4995318;28;20559;-71
2021/01/18 04:44:09;;;;;;;29.27;14.32;;;5.40;76.50;;;;;;5010750;28;20389;-72
2021/01/18 04:46:45;;;;;;;29.90;14.45;;;5.40;76.40;;;;;;5009843;28;20435;-72
2021/01/18 04:49:14;;;;;;;29.25;13.90;;;5.40;76.70;;;;;;5009695;28;20411;-70
2021/01/18 04:51:44;;;;;;;35.03;13.90;;;5.40;76.00;;;;;;5009703;28;20762;-71
2021/01/18 04:54:15;;;;;;;29.38;14.35;;;5.40;76.00;;;;;;5014904;28;20396;-73
2021/01/18 04:57:12;;;;;;;40.57;14.63;;;5.40;75.90;;;;;;5012660;28;20445;-73
2021/01/18 04:59:37;;;;;;;31.38;13.07;;;5.30;76.10;;;;;;5014708;28;20385;-72
2021/01/18 05:02:08;;;;;;;28.73;14.07;;;5.30;76.20;;;;;;5015563;28;20433;-74
2021/01/18 05:04:39;;;;;;;27.52;13.68;;;5.30;77.10;;;;;;5015387;28;20401;-72
2021/01/18 05:07:33;;;;;;;29.70;13.73;;;5.40;76.90;;;;;;5015382;28;20409;-72
2021/01/18 05:10:10;;;;;;;30.65;13.60;;;5.40;76.10;;;;;;4997961;28;20828;-71
2021/01/18 05:12:40;;;;;;;30.25;13.55;;;5.40;75.60;;;;;;5012354;28;20507;-72
2021/01/18 05:15:11;;;;;;;30.60;13.43;;;5.50;75.50;;;;;;5018386;28;20427;-73
2021/01/18 05:17:41;;;;;;;28.38;13.70;;;5.50;76.00;;;;;;5015209;28;20412;-71
2021/01/18 05:20:09;;;;;;;30.90;13.90;;;5.40;76.30;;;;;;4997237;28;20895;-72
2021/01/18 05:22:35;;;;;;;30.90;14.30;;;5.50;76.60;;;;;;4993720;28;20382;-72
2021/01/18 05:25:01;;;;;;;27.47;13.20;;;5.50;75.40;;;;;;4993896;28;20390;-72
2021/01/18 05:27:26;;;;;;;29.17;13.40;;;5.60;74.30;;;;;;5002620;28;20408;-72
2021/01/18 05:29:56;;;;;;;25.83;12.90;;;5.60;74.70;;;;;;5012574;28;20472;-72
2021/01/18 05:32:26;;;;;;;29.25;13.57;;;5.50;74.60;;;;;;5012555;28;20432;-71
2021/01/18 05:35:15;;;;;;;26.27;13.80;;;5.50;75.40;;;;;;4993336;28;20390;-71
2021/01/18 05:37:59;;;;;;;29.55;13.90;;;5.40;76.60;;;;;;4987583;28;20417;-70
2021/01/18 05:40:26;;;;;;;35.20;14.35;;;5.40;76.40;;;;;;4993090;28;20386;-72
2021/01/18 05:42:52;;;;;;;30.42;14.80;;;5.40;77.30;;;;;;5010031;28;20410;-71
2021/01/18 05:45:36;;;;;;;33.90;14.80;;;5.40;77.90;;;;;;5012198;28;20392;-71
2021/01/18 05:48:03;;;;;;;30.20;14.30;;;5.50;76.40;;;;;;5012717;28;20389;-72
2021/01/18 05:50:30;;;;;;;27.93;14.60;;;5.50;75.60;;;;;;5013531;28;20762;-71
2021/01/18 05:52:57;;;;;;;28.50;13.45;;;5.50;76.20;;;;;;5014516;28;20411;-71
2021/01/18 05:55:26;;;;;;;32.92;14.00;;;5.60;75.00;;;;;;5014167;28;20400;-70
2021/01/18 05:57:57;;;;;;;30.02;14.88;;;5.50;75.70;;;;;;5013632;28;20913;-71
2021/01/18 06:00:30;;;;;;;32.55;15.55;;;5.40;76.10;;;;;;5013449;28;20408;-70
2021/01/18 06:02:57;;;;;;;32.22;14.95;;;5.40;76.00;;;;;;5014446;28;20381;-70
2021/01/18 06:05:27;;;;;;;31.77;15.27;;;5.40;77.50;;;;;;5014332;28;20389;-70
2021/01/18 06:07:53;;;;;;;44.80;16.67;;;5.30;78.50;;;;;;5002835;28;20891;-70
2021/01/18 06:10:19;;;;;;;40.08;17.17;;;5.30;79.50;;;;;;4992556;28;20405;-70
2021/01/18 06:12:45;;;;;;;36.15;16.10;;;5.30;78.90;;;;;;5007224;28;20720;-71
2021/01/18 06:15:13;;;;;;;35.15;16.83;;;5.40;78.40;;;;;;5012124;28;20482;-72
2021/01/18 06:17:44;;;;;;;34.58;16.65;;;5.30;79.30;;;;;;5011806;28;20495;-71
2021/01/18 06:20:17;;;;;;;33.90;16.35;;;5.30;80.60;;;;;;5011333;28;20393;-71
2021/01/18 06:22:58;;;;;;;32.22;16.80;;;5.40;80.10;;;;;;5011911;28;20985;-70
2021/01/18 06:25:25;;;;;;;34.40;16.40;;;5.40;79.10;;;;;;5010392;28;20404;-71
2021/01/18 06:27:52;;;;;;;43.43;17.67;;;5.40;78.50;;;;;;5010951;28;20392;-72
2021/01/18 06:30:22;;;;;;;38.85;16.98;;;5.50;79.70;;;;;;5011460;28;20384;-71
2021/01/18 06:32:53;;;;;;;34.10;17.38;;;5.60;78.70;;;;;;4996291;28;20822;-70
2021/01/18 06:35:25;;;;;;;38.05;17.10;;;5.60;77.00;;;;;;4991795;28;20391;-71
2021/01/18 06:37:55;;;;;;;38.85;17.42;;;5.60;76.10;;;;;;4991751;28;20406;-71
2021/01/18 06:40:29;;;;;;;42.15;17.85;;;5.60;77.40;;;;;;4992587;28;20390;-71
2021/01/18 06:42:56;;;;;;;33.53;16.52;;;5.60;78.10;;;;;;5011159;28;20901;-71
2021/01/18 06:45:28;;;;;;;37.80;17.77;;;5.60;78.60;;;;;;5008628;28;20488;-72
2021/01/18 06:47:56;;;;;;;37.45;17.20;;;5.60;78.10;;;;;;4999742;28;20412;-72
2021/01/18 06:50:27;;;;;;;40.88;17.45;;;5.70;78.00;;;;;;5011171;28;20431;-73
2021/01/18 06:52:54;;;;;;;35.25;17.95;;;5.70;77.30;;;;;;5011419;28;20381;-71
2021/01/18 06:55:30;;;;;;;40.95;18.65;;;5.70;77.20;;;;;;5010564;28;20491;-71
2021/01/18 06:58:16;;;;;;;36.70;18.35;;;5.60;78.10;;;;;;5011099;28;20412;-72
2021/01/18 07:00:46;;;;;;;45.47;17.65;;;5.60;76.00;;;;;;5009901;28;20399;-72
2021/01/18 07:03:41;;;;;;;46.03;18.90;;;5.60;77.00;;;;;;5011146;28;20455;-72
2021/01/18 07:06:37;;;;;;;38.13;17.20;;;5.70;76.20;;;;;;5011106;28;20399;-74
2021/01/18 07:09:07;;;;;;;42.13;18.30;;;5.60;77.40;;;;;;5003153;28;20419;-70
2021/01/18 07:11:33;;;;;;;43.10;18.00;;;5.60;77.20;;;;;;5010795;28;20415;-71
2021/01/18 07:14:05;;;;;;;38.67;18.05;;;5.70;77.20;;;;;;5010513;28;20385;-71
2021/01/18 07:16:32;;;;;;;42.67;17.20;;;5.70;76.70;;;;;;5004585;28;20497;-71
2021/01/18 07:19:00;;;;;;;45.08;17.95;;;5.70;75.90;;;;;;5004090;28;20492;-71
2021/01/18 07:21:48;;;;;;;43.55;18.15;;;5.80;75.20;;;;;;5010283;28;20403;-70
2021/01/18 07:24:15;;;;;;;42.92;17.23;;;5.80;75.30;;;;;;5011271;28;20427;-71
2021/01/18 07:26:53;;;;;;;32.28;16.92;;;5.80;74.30;;;;;;5012088;28;20464;-70
2021/01/18 07:29:22;;;;;;;38.78;16.65;;;5.80;75.00;;;;;;5010991;28;20403;-70
2021/01/18 07:31:54;;;;;;;43.87;17.17;;;5.80;75.20;;;;;;5011069;28;20677;-70
2021/01/18 07:34:21;;;;;;;40.90;17.85;;;5.70;76.10;;;;;;4996037;28;20422;-68
2021/01/18 07:36:48;;;;;;;35.95;16.77;;;5.60;77.00;;;;;;4992699;28;20461;-69
2021/01/18 07:39:42;;;;;;;37.60;17.25;;;5.60;77.70;;;;;;5008235;28;20408;-71
2021/01/18 07:42:32;;;;;;;39.38;17.55;;;5.40;78.30;;;;;;5009780;28;20401;-70
2021/01/18 07:45:24;;;;;;;39.75;16.42;;;5.50;77.40;;;;;;5007300;28;20383;-72
2021/01/18 07:47:56;;;;;;;40.03;15.93;;;5.50;76.50;;;;;;5001427;28;20499;-73
2021/01/18 07:50:28;;;;;;;38.75;17.83;;;5.40;77.50;;;;;;5009157;28;20474;-72
2021/01/18 07:53:01;;;;;;;47.78;18.73;;;5.30;78.30;;;;;;5003999;28;20400;-72
2021/01/18 07:55:27;;;;;;;44.42;17.55;;;5.30;80.40;;;;;;5010831;28;20409;-71
2021/01/18 07:57:53;;;;;;;49.17;18.42;;;5.30;81.30;;;;;;5010937;28;20432;-70
2021/01/18 08:00:18;;;;;;;38.13;17.50;;;5.30;80.30;;;;;;5008729;28;20480;-72
2021/01/18 08:02:48;;;;;;;41.00;19.07;;;5.40;78.30;;;;;;5009118;28;20401;-73
2021/01/18 08:05:26;;;;;;;44.03;19.70;;;5.50;77.60;;;;;;5007199;28;21374;-71
2021/01/18 08:08:07;;;;;;;46.58;19.55;;;5.40;77.90;;;;;;5003134;28;20403;-71
2021/01/18 08:10:54;;;;;;;43.60;19.30;;;5.60;76.30;;;;;;5000023;28;20404;-73
2021/01/18 08:13:41;;;;;;;42.40;18.98;;;5.50;77.00;;;;;;5007267;28;20403;-72
2021/01/18 08:16:39;;;;;;;42.47;18.65;;;5.70;74.80;;;;;;5007885;28;20443;-71
2021/01/18 08:19:17;;;;;;;50.83;20.23;;;5.70;74.60;;;;;;5004209;28;20399;-72
2021/01/18 08:21:45;;;;;;;41.33;20.25;;;5.70;73.80;;;;;;5006647;28;21515;-72
2021/01/18 08:24:36;;;;;;;48.55;20.80;;;5.80;73.50;;;;;;5004897;28;20418;-74
2021/01/18 08:27:06;;;;;;;37.05;17.52;;;5.80;72.40;;;;;;5004562;28;20416;-73
2021/01/18 08:29:46;;;;;;;46.75;18.95;;;5.90;70.40;;;;;;5005183;28;20500;-75
2021/01/18 08:32:23;;;;;;;43.60;17.98;;;6.10;68.90;;;;;;5005842;28;20416;-73
2021/01/18 08:35:04;;;;;;;41.10;16.77;;;6.10;69.20;;;;;;5004531;28;20389;-74
2021/01/18 08:37:31;;;;;;;42.08;15.95;;;6.20;67.70;;;;;;5008655;28;20417;-73
2021/01/18 08:40:14;;;;;;;38.23;16.27;;;6.20;67.60;;;;;;5005303;28;20438;-75
2021/01/18 08:42:41;;;;;;;36.85;15.25;;;6.20;69.10;;;;;;5004970;28;20951;-72
2021/01/18 08:45:08;;;;;;;44.13;16.40;;;6.30;66.10;;;;;;5011705;28;20549;-76
2021/01/18 08:47:39;;;;;;;37.42;15.77;;;6.40;64.80;;;;;;5010714;28;20418;-74
2021/01/18 08:50:26;;;;;;;40.33;15.50;;;6.30;66.10;;;;;;5008269;28;20436;-73
2021/01/18 08:53:21;;;;;;;36.58;15.60;;;6.40;65.60;;;;;;5006833;28;20408;-73
2021/01/18 08:55:47;;;;;;;42.50;15.60;;;6.50;64.00;;;;;;5012858;28;20465;-72
2021/01/18 08:58:12;;;;;;;36.80;14.67;;;6.40;64.70;;;;;;5006318;28;20417;-73
2021/01/18 09:00:42;;;;;;;38.15;15.68;;;6.50;63.60;;;;;;5008468;28;20430;-74
2021/01/18 09:03:28;;;;;;;33.30;15.83;;;6.40;64.10;;;;;;5005453;28;20512;-73
2021/01/18 09:05:55;;;;;;;44.28;15.80;;;6.40;64.20;;;;;;5002481;28;20408;-74
2021/01/18 09:08:22;;;;;;;41.15;15.70;;;6.40;64.30;;;;;;5010990;28;20411;-72
2021/01/18 09:10:56;;;;;;;48.33;16.85;;;6.40;64.30;;;;;;5012734;28;20451;-72
2021/01/18 09:13:25;;;;;;;38.50;16.90;;;6.40;65.00;;;;;;5008287;28;20411;-73
2021/01/18 09:15:52;;;;;;;41.42;17.25;;;6.50;64.00;;;;;;5007826;28;20409;-74
2021/01/18 09:18:19;;;;;;;39.53;16.52;;;6.50;63.30;;;;;;5006870;28;20747;-73
2021/01/18 09:20:46;;;;;;;38.92;15.43;;;6.60;63.20;;;;;;5012368;28;20878;-72
2021/01/18 09:23:13;;;;;;;42.90;16.15;;;6.60;62.60;;;;;;5006672;28;20408;-74
2021/01/18 09:25:39;;;;;;;39.07;17.07;;;6.60;62.00;;;;;;5009608;28;20497;-73
2021/01/18 09:28:10;;;;;;;38.67;16.63;;;6.60;63.10;;;;;;5010892;28;20401;-73
2021/01/18 09:30:37;;;;;;;45.75;15.68;;;6.70;62.50;;;;;;5011748;28;20404;-73
2021/01/18 09:33:05;;;;;;;43.13;14.90;;;6.80;61.50;;;;;;5003295;28;20744;-73
2021/01/18 09:35:33;;;;;;;42.85;15.55;;;6.80;59.80;;;;;;5009938;28;20751;-74
2021/01/18 09:37:59;;;;;;;42.50;15.60;;;6.70;61.00;;;;;;5010792;28;20440;-73
2021/01/18 09:40:26;;;;;;;43.80;15.80;;;6.70;61.70;;;;;;5009145;28;20968;-75
2021/01/18 09:42:55;;;;;;;33.20;15.02;;;6.80;60.00;;;;;;5011645;28;20886;-72
2021/01/18 09:45:21;;;;;;;40.25;16.00;;;6.80;59.40;;;;;;5011176;28;20412;-73
2021/01/18 09:47:48;;;;;;;42.97;16.65;;;6.80;60.20;;;;;;5004890;28;20413;-73
2021/01/18 09:50:18;;;;;;;41.55;15.80;;;6.80;61.70;;;;;;5005198;28;20467;-72
2021/01/18 09:52:51;;;;;;;43.45;15.68;;;6.80;61.20;;;;;;5009545;28;20428;-72
2021/01/18 09:55:30;;;;;;;37.10;14.82;;;6.80;60.90;;;;;;5008645;28;20417;-74
2021/01/18 09:58:18;;;;;;;37.87;14.80;;;6.90;60.60;;;;;;5011333;28;20408;-73
2021/01/18 10:00:49;;;;;;;33.03;14.57;;;7.00;59.80;;;;;;5010806;28;20400;-74
2021/01/18 10:03:31;;;;;;;34.15;14.00;;;7.00;60.50;;;;;;5009662;28;20386;-73
2021/01/18 10:06:09;;;;;;;34.22;15.32;;;7.00;59.90;;;;;;5008769;28;20398;-72
2021/01/18 10:08:36;;;;;;;41.78;14.63;;;7.00;60.70;;;;;;5009477;28;20412;-72
2021/01/18 10:11:02;;;;;;;36.83;12.60;;;7.10;58.70;;;;;;5011440;28;20379;-75
2021/01/18 10:13:28;;;;;;;32.20;14.15;;;7.20;57.30;;;;;;5011394;28;20403;-74
2021/01/18 10:15:54;;;;;;;32.40;14.00;;;7.20;57.30;;;;;;5011597;28;20979;-72
2021/01/18 10:18:42;;;;;;;33.50;13.23;;;7.20;56.70;;;;;;5013282;28;20413;-72
2021/01/18 10:21:09;;;;;;;37.77;13.47;;;7.20;56.90;;;;;;5012124;28;20442;-72
2021/01/18 10:23:38;;;;;;;45.63;17.58;;;7.10;56.60;;;;;;5012529;28;20770;-72
2021/01/18 10:26:21;;;;;;;41.40;13.13;;;7.20;57.00;;;;;;5013008;28;20469;-73
2021/01/18 10:28:58;;;;;;;35.20;12.00;;;7.20;55.90;;;;;;5007032;28;20418;-75
2021/01/18 10:31:33;;;;;;;32.90;12.13;;;7.10;56.70;;;;;;5014268;28;20486;-73
2021/01/18 10:34:21;;;;;;;34.72;11.73;;;7.10;57.40;;;;;;5015698;28;20475;-74
2021/01/18 10:36:49;;;;;;;34.75;11.60;;;7.10;56.40;;;;;;5013212;28;20412;-72
2021/01/18 10:39:29;;;;;;;31.95;11.88;;;7.00;56.50;;;;;;5014272;28;20403;-73
2021/01/18 10:42:07;;;;;;;34.30;11.73;;;7.00;57.50;;;;;;5013593;28;20481;-72
2021/01/18 10:44:34;;;;;;;36.42;11.98;;;6.90;57.90;;;;;;5014083;28;20455;-71
2021/01/18 10:47:00;;;;;;;29.63;11.10;;;7.00;57.50;;;;;;5012978;28;20408;-73
2021/01/18 10:49:31;;;;;;;25.40;11.05;;;7.00;56.80;;;;;;5010082;28;20937;-73
2021/01/18 10:51:58;;;;;;;25.92;10.85;;;7.10;56.50;;;;;;5010430;28;20466;-72
2021/01/18 10:54:24;;;;;;;25.75;9.90;;;7.10;55.60;;;;;;5011596;28;20386;-73
2021/01/18 10:56:50;;;;;;;25.40;9.40;;;7.10;54.80;;;;;;5010131;28;20774;-72
2021/01/18 10:59:15;;;;;;;24.75;10.20;;;7.10;53.90;;;;;;5008657;28;20412;-73
2021/01/18 11:02:02;;;;;;;24.50;9.52;;;7.00;55.60;;;;;;5010561;28;20893;-73
2021/01/18 11:04:28;;;;;;;23.90;9.40;;;7.10;54.80;;;;;;5009918;28;20427;-73
2021/01/18 11:06:56;;;;;;;25.20;10.20;;;7.10;54.30;;;;;;5010201;28;20892;-73
2021/01/18 11:09:40;;;;;;;26.15;9.57;;;7.10;54.70;;;;;;5010156;28;20416;-72
2021/01/18 11:12:07;;;;;;;24.20;9.23;;;7.20;54.60;;;;;;5009834;28;20814;-72
2021/01/18 11:14:34;;;;;;;24.17;10.20;;;7.20;54.30;;;;;;5007273;28;20430;-72
2021/01/18 11:17:03;;;;;;;24.25;8.75;;;7.50;52.90;;;;;;5002166;28;20507;-72
2021/01/18 11:19:29;;;;;;;24.17;9.40;;;7.70;51.00;;;;;;5009266;28;20412;-71
2021/01/18 11:21:54;;;;;;;25.85;8.90;;;7.90;50.20;;;;;;5009879;28;20384;-73
2021/01/18 11:24:20;;;;;;;29.60;8.93;;;8.20;46.40;;;;;;5010803;28;20898;-71
2021/01/18 11:26:53;;;;;;;20.60;8.10;;;8.30;48.00;;;;;;5010524;28;20393;-72
2021/01/18 11:29:20;;;;;;;21.95;8.60;;;8.40;45.20;;;;;;5009160;28;20405;-71
2021/01/18 11:31:46;;;;;;;21.35;7.75;;;8.40;46.60;;;;;;5010590;28;20396;-75
2021/01/18 11:34:12;;;;;;;25.33;8.38;;;8.40;46.80;;;;;;5008120;28;20473;-74
2021/01/18 11:36:39;;;;;;;23.00;8.77;;;8.40;45.40;;;;;;5010509;28;20405;-73
2021/01/18 11:39:06;;;;;;;19.23;8.70;;;8.30;46.50;;;;;;5010956;28;20412;-73
2021/01/18 11:41:33;;;;;;;20.23;7.55;;;8.20;47.30;;;;;;5014590;28;20397;-73
2021/01/18 11:43:59;;;;;;;23.98;8.05;;;8.20;46.30;;;;;;5012121;28;20400;-74
2021/01/18 11:46:24;;;;;;;22.00;8.50;;;8.20;45.60;;;;;;5015366;28;20806;-74
2021/01/18 11:48:50;;;;;;;22.77;8.05;;;8.10;47.30;;;;;;5013122;28;20466;-74
2021/01/18 11:51:16;;;;;;;19.60;7.82;;;8.20;46.50;;;;;;5014313;28;20417;-73
2021/01/18 11:53:41;;;;;;;29.80;8.13;;;8.30;46.80;;;;;;5014705;28;20414;-73
2021/01/18 11:56:07;;;;;;;24.17;7.78;;;8.30;45.50;;;;;;5011651;28;20393;-74
2021/01/18 11:58:32;;;;;;;21.75;7.10;;;8.40;46.40;;;;;;5014257;28;20419;-73
2021/01/18 12:00:58;;;;;;;26.38;7.88;;;8.40;46.00;;;;;;5013788;28;20396;-73
2021/01/18 12:03:25;;;;;;;23.17;8.32;;;8.40;45.00;;;;;;5014502;28;20439;-74
2021/01/18 12:05:50;;;;;;;29.67;8.02;;;8.50;44.70;;;;;;5009759;28;20417;-74
2021/01/18 12:08:16;;;;;;;25.50;7.93;;;8.50;45.80;;;;;;5014395;28;20763;-74
2021/01/18 12:10:42;;;;;;;22.17;7.50;;;8.60;44.20;;;;;;5012924;28;20420;-73
2021/01/18 12:13:07;;;;;;;21.97;7.13;;;8.70;43.30;;;;;;5019712;28;20821;-73
2021/01/18 12:15:33;;;;;;;28.20;7.47;;;8.70;42.40;;;;;;5016919;28;20786;-73
2021/01/18 12:18:00;;;;;;;23.60;7.57;;;8.60;42.90;;;;;;5019020;28;20412;-72
2021/01/18 12:20:26;;;;;;;22.85;6.75;;;8.60;43.40;;;;;;5013568;28;20408;-75
2021/01/18 12:22:53;;;;;;;19.20;7.50;;;8.60;41.80;;;;;;5014084;28;20391;-72
2021/01/18 12:25:19;;;;;;;26.60;7.45;;;8.60;42.10;;;;;;5012977;28;20446;-75
2021/01/18 12:27:54;;;;;;;23.53;6.50;;;8.50;43.60;;;;;;5012904;28;20437;-73
2021/01/18 12:30:20;;;;;;;21.63;6.28;;;8.50;43.00;;;;;;5012201;28;20520;-73
2021/01/18 12:32:46;;;;;;;19.10;6.37;;;8.50;42.70;;;;;;5011479;28;20397;-75
2021/01/18 12:35:13;;;;;;;13.50;5.70;;;8.40;43.50;;;;;;5013224;28;20488;-74
2021/01/18 12:37:38;;;;;;;18.55;6.70;;;8.40;43.60;;;;;;5012931;28;20874;-73
2021/01/18 12:40:06;;;;;;;20.55;6.82;;;8.30;43.40;;;;;;5012556;28;20408;-74
2021/01/18 12:42:32;;;;;;;18.80;5.70;;;8.30;43.40;;;;;;5012578;28;20412;-72
2021/01/18 12:44:57;;;;;;;19.80;5.50;;;8.20;42.60;;;;;;5013103;28;20450;-76
2021/01/18 12:47:23;;;;;;;13.57;5.20;;;8.10;42.90;;;;;;5010442;28;20407;-74
2021/01/18 12:49:48;;;;;;;19.23;5.27;;;8.10;43.40;;;;;;5013128;28;20427;-72
2021/01/18 12:52:14;;;;;;;22.80;5.57;;;8.10;43.50;;;;;;5013693;28;20530;-74
2021/01/18 12:54:39;;;;;;;22.83;6.23;;;8.00;43.00;;;;;;5012143;28;20894;-73
2021/01/18 12:57:05;;;;;;;18.00;5.03;;;8.10;43.10;;;;;;5013786;28;20750;-72